Terminal Aerodrome Forecast
Issued by NWS

Home | Current Version | Previous Version | Text Only | Print | Product List | Glossary On
Versions: 1 2 3 4 5 6 7 8 9 10 11 12 13 14 15 16
000
FTUS41 KBGM 011100
TAFRME
TAF
KRME 011128Z 0112/0212 11008KT P6SM BKN045
      TEMPO 0112/0113 5SM BR OVC015
     FM020000 12005KT P6SM SCT035
      TEMPO 0209/0212 3SM BR BKN015=

USA.gov is the U.S. government's official web portal to all federal, state and local government web resources and services.